Time;durP1;ratioP1;P1;durP2;ratioP2;P2;SDS_P1;SDS_P2;PMS_P1;PMS_P2;Temp;Humidity;BMP_temperature;BMP_pressure;BME280_temperature;BME280_humidity;BME280_pressure;Samples;Min_cycle;Max_cycle;Signal;HPM_P1;HPM_P2
2022/05/21 00:01:59;;;;;;;9.52;7.00;;;14.60;99.90;;;;;;5018078;28;20208;-80
2022/05/21 00:04:41;;;;;;;10.90;6.90;;;14.50;99.90;;;;;;4989380;28;20220;-80
2022/05/21 00:07:21;;;;;;;12.98;8.15;;;14.30;99.90;;;;;;5016264;28;20204;-79
2022/05/21 00:10:04;;;;;;;9.40;7.68;;;14.10;99.90;;;;;;5018348;28;20926;-79
2022/05/21 00:12:41;;;;;;;10.50;8.13;;;14.20;99.90;;;;;;4992168;28;20207;-80
2022/05/21 00:15:21;;;;;;;11.13;7.57;;;14.20;99.90;;;;;;5002351;28;20215;-80
2022/05/21 00:17:51;;;;;;;12.50;7.93;;;14.30;99.90;;;;;;5019138;28;20208;-80
2022/05/21 00:23:19;;;;;;;12.07;8.68;;;14.00;99.90;;;;;;4998577;28;20192;-82
2022/05/21 00:25:55;;;;;;;11.63;8.30;;;13.80;99.90;;;;;;5019621;28;20220;-82
2022/05/21 00:28:36;;;;;;;10.75;7.97;;;13.80;99.90;;;;;;5019641;28;20207;-82
2022/05/21 00:31:05;;;;;;;9.93;8.90;;;13.80;99.90;;;;;;4991933;28;20215;-82
2022/05/21 00:33:46;;;;;;;12.48;8.35;;;13.70;99.90;;;;;;5000691;28;20197;-82
2022/05/21 00:36:23;;;;;;;14.02;9.95;;;13.60;99.90;;;;;;4998648;28;20195;-82
2022/05/21 00:38:59;;;;;;;14.85;11.18;;;13.70;99.90;;;;;;4987650;28;20207;-82
2022/05/21 00:41:31;;;;;;;12.25;9.77;;;13.60;99.90;;;;;;4995127;28;20183;-82
2022/05/21 00:44:05;;;;;;;13.88;11.75;;;13.50;99.90;;;;;;4997317;28;20242;-82
2022/05/21 00:46:40;;;;;;;15.50;10.98;;;13.60;99.90;;;;;;4992633;28;20207;-82
2022/05/21 00:49:22;;;;;;;13.33;11.23;;;13.50;99.90;;;;;;5010153;28;20204;-82
2022/05/21 00:52:23;;;;;;;12.88;10.95;;;13.50;99.90;;;;;;4993029;28;20204;-82
2022/05/21 00:55:04;;;;;;;16.33;11.20;;;13.60;99.90;;;;;;5013249;28;20235;-82
2022/05/21 00:57:44;;;;;;;14.40;11.95;;;13.60;99.90;;;;;;4987978;28;20212;-82
2022/05/21 01:00:25;;;;;;;13.95;11.65;;;13.40;99.90;;;;;;5000533;28;20208;-82
2022/05/21 01:03:06;;;;;;;16.15;11.65;;;13.50;99.90;;;;;;4993097;28;20188;-82
2022/05/21 01:05:37;;;;;;;14.32;11.57;;;13.40;99.90;;;;;;4987828;28;20223;-82
2022/05/21 01:08:26;;;;;;;13.57;12.05;;;13.30;99.90;;;;;;4988699;28;20196;-82
2022/05/21 01:11:11;;;;;;;14.45;11.18;;;13.40;99.90;;;;;;4995894;28;20207;-82
2022/05/21 01:13:47;;;;;;;13.98;12.18;;;13.40;99.90;;;;;;5001617;28;20192;-82
2022/05/21 01:19:28;;;;;;;15.00;12.23;;;13.40;99.90;;;;;;5003392;28;20199;-80
2022/05/21 01:22:05;;;;;;;15.97;12.63;;;13.20;99.90;;;;;;4992551;28;20199;-80
2022/05/21 01:24:46;;;;;;;16.17;12.00;;;13.10;99.90;;;;;;4986430;28;20230;-79
2022/05/21 01:27:34;;;;;;;16.65;12.50;;;13.20;99.90;;;;;;4993213;28;20200;-82
2022/05/21 01:30:11;;;;;;;16.80;12.80;;;13.10;99.90;;;;;;4990261;28;20215;-82
2022/05/21 01:32:49;;;;;;;17.40;12.23;;;13.10;99.90;;;;;;5003738;28;20219;-82
2022/05/21 01:35:31;;;;;;;14.67;12.17;;;13.10;99.90;;;;;;5009326;28;20216;-82
2022/05/21 01:38:06;;;;;;;15.90;11.07;;;12.90;99.90;;;;;;4990094;28;20208;-81
2022/05/21 01:40:44;;;;;;;11.63;9.65;;;13.00;99.90;;;;;;4985316;28;20200;-81
2022/05/21 01:46:01;;;;;;;11.53;9.80;;;12.90;99.90;;;;;;5006409;28;20647;-82
2022/05/21 01:48:35;;;;;;;12.40;9.83;;;12.90;99.90;;;;;;5022189;28;20203;-82
2022/05/21 01:51:03;;;;;;;11.73;8.73;;;12.80;99.90;;;;;;5010815;28;20266;-82
2022/05/21 01:53:39;;;;;;;11.53;9.47;;;12.80;99.90;;;;;;4989258;28;20216;-82
2022/05/21 01:56:34;;;;;;;12.50;9.27;;;12.80;99.90;;;;;;5018558;28;20192;-82
2022/05/21 01:59:08;;;;;;;10.53;9.03;;;12.90;99.90;;;;;;5001636;28;20201;-82
2022/05/21 02:01:41;;;;;;;11.57;8.13;;;12.90;99.90;;;;;;5023053;28;20212;-82
2022/05/21 02:04:17;;;;;;;10.57;8.40;;;12.90;99.90;;;;;;4985490;28;20220;-82
2022/05/21 02:06:54;;;;;;;10.77;8.80;;;12.90;99.90;;;;;;4991540;28;20222;-82
2022/05/21 02:09:34;;;;;;;10.87;8.60;;;12.80;99.90;;;;;;5021487;28;20196;-82
2022/05/21 02:12:16;;;;;;;10.60;7.83;;;12.90;99.90;;;;;;4991813;28;20212;-81
2022/05/21 02:14:50;;;;;;;8.47;7.27;;;13.00;99.90;;;;;;5021971;28;20220;-82
2022/05/21 02:17:19;;;;;;;9.13;7.40;;;13.00;99.90;;;;;;4998634;28;20193;-82
2022/05/21 02:19:58;;;;;;;9.07;7.80;;;13.00;99.90;;;;;;4989532;28;20215;-82
2022/05/21 02:22:37;;;;;;;9.63;7.47;;;13.00;99.90;;;;;;4988994;28;20184;-82
2022/05/21 02:25:22;;;;;;;10.00;6.95;;;12.90;99.90;;;;;;5007107;28;20218;-82
2022/05/21 02:28:03;;;;;;;12.45;6.35;;;13.10;99.90;;;;;;4987784;28;20212;-80
2022/05/21 02:30:38;;;;;;;8.77;5.83;;;13.20;99.90;;;;;;5001427;28;20207;-82
2022/05/21 02:33:06;;;;;;;7.40;6.43;;;13.10;99.90;;;;;;4990931;28;20220;-82
2022/05/21 02:35:48;;;;;;;8.20;6.10;;;13.10;99.90;;;;;;5023654;28;20236;-82
2022/05/21 02:41:15;;;;;;;11.70;6.40;;;13.10;99.90;;;;;;4999548;28;20188;-82
2022/05/21 02:43:48;;;;;;;8.37;5.87;;;13.20;99.90;;;;;;4988729;28;20196;-82
2022/05/21 02:46:19;;;;;;;9.80;6.17;;;13.10;99.90;;;;;;5009349;28;20302;-82
2022/05/21 02:48:49;;;;;;;8.30;5.20;;;13.10;99.90;;;;;;4991267;28;20211;-82
2022/05/21 02:51:19;;;;;;;5.40;4.80;;;13.20;99.90;;;;;;5005759;28;20205;-82
2022/05/21 02:53:52;;;;;;;7.07;5.53;;;13.20;99.90;;;;;;4991245;28;20247;-82
2022/05/21 02:56:24;;;;;;;9.43;4.90;;;13.10;99.90;;;;;;4992532;28;20192;-82
2022/05/21 02:59:06;;;;;;;8.10;5.47;;;13.20;99.90;;;;;;5011261;28;20207;-82
2022/05/21 03:01:56;;;;;;;8.63;5.73;;;13.20;99.90;;;;;;4995168;28;20196;-82
2022/05/21 03:04:38;;;;;;;7.93;5.27;;;13.20;99.90;;;;;;5019670;28;20224;-82
2022/05/21 03:07:14;;;;;;;7.07;5.73;;;13.10;99.90;;;;;;4993247;28;20200;-82
2022/05/21 03:12:38;;;;;;;9.43;6.20;;;13.10;99.90;;;;;;5004816;28;20598;-82
2022/05/21 03:15:12;;;;;;;8.00;7.07;;;13.00;99.90;;;;;;5007717;28;20216;-82
2022/05/21 03:17:49;;;;;;;10.93;6.70;;;13.10;99.90;;;;;;5018322;28;20211;-82
2022/05/21 03:20:22;;;;;;;9.27;7.50;;;13.20;99.90;;;;;;4990684;28;20197;-82
2022/05/21 03:23:02;;;;;;;11.53;7.47;;;13.10;99.90;;;;;;5020516;28;20208;-82
2022/05/21 03:25:36;;;;;;;8.70;7.80;;;13.10;99.90;;;;;;5021768;28;20227;-81
2022/05/21 03:28:09;;;;;;;10.07;8.00;;;13.10;99.90;;;;;;4995934;28;20199;-81
2022/05/21 03:30:43;;;;;;;11.77;8.90;;;13.10;99.90;;;;;;4999138;28;20204;-81
2022/05/21 03:33:16;;;;;;;10.20;8.57;;;13.00;99.90;;;;;;4992897;28;20216;-81
2022/05/21 03:35:55;;;;;;;14.20;11.33;;;13.10;99.90;;;;;;4999879;28;20223;-82
2022/05/21 03:38:28;;;;;;;10.80;8.57;;;12.90;99.90;;;;;;4990978;28;20208;-82
2022/05/21 03:41:02;;;;;;;14.07;9.33;;;13.10;99.90;;;;;;4987422;28;20196;-82
2022/05/21 03:43:48;;;;;;;11.33;9.10;;;13.10;99.90;;;;;;5017104;28;20288;-82
2022/05/21 03:46:29;;;;;;;11.70;9.50;;;13.20;99.90;;;;;;4988043;28;20212;-82
2022/05/21 03:49:04;;;;;;;12.60;9.80;;;13.20;99.90;;;;;;5023069;28;20208;-82
2022/05/21 03:51:40;;;;;;;13.70;10.07;;;13.10;99.90;;;;;;4994113;28;20198;-82
2022/05/21 03:54:15;;;;;;;11.47;10.20;;;13.10;99.90;;;;;;5015543;28;20230;-82
2022/05/21 03:56:49;;;;;;;15.57;12.03;;;13.20;99.90;;;;;;4993377;28;20215;-81
2022/05/21 03:59:27;;;;;;;11.60;10.10;;;13.00;99.90;;;;;;5014650;28;20201;-82
2022/05/21 04:02:12;;;;;;;11.70;10.23;;;13.00;99.90;;;;;;4995883;28;20231;-81
2022/05/21 04:04:48;;;;;;;12.43;10.10;;;12.90;99.90;;;;;;5019909;28;20216;-82
2022/05/21 04:07:26;;;;;;;11.63;10.03;;;13.00;99.90;;;;;;5015999;28;20216;-82
2022/05/21 04:09:59;;;;;;;13.27;9.80;;;13.10;99.90;;;;;;5020644;28;20204;-82
2022/05/21 04:12:30;;;;;;;14.90;10.93;;;13.00;99.90;;;;;;5009572;28;20200;-82
2022/05/21 04:15:09;;;;;;;14.63;10.40;;;13.00;99.90;;;;;;4993000;28;20220;-82
2022/05/21 04:17:44;;;;;;;15.03;10.87;;;13.00;99.90;;;;;;5009277;28;20204;-81
2022/05/21 04:20:16;;;;;;;14.87;10.37;;;13.00;99.90;;;;;;4999188;28;20200;-82
2022/05/21 04:22:50;;;;;;;14.63;10.83;;;13.00;99.90;;;;;;5003943;28;20208;-82
2022/05/21 04:25:23;;;;;;;11.57;9.43;;;13.00;99.90;;;;;;4985104;28;20220;-82
2022/05/21 04:28:03;;;;;;;14.63;10.43;;;13.10;99.90;;;;;;5022843;28;20204;-81
2022/05/21 04:30:40;;;;;;;15.70;10.23;;;13.10;99.90;;;;;;5026864;28;20730;-81
2022/05/21 04:33:10;;;;;;;15.67;10.23;;;13.10;99.90;;;;;;4994272;28;20599;-82
2022/05/21 04:38:38;;;;;;;13.10;10.17;;;13.00;99.90;;;;;;5025795;28;20196;-81
2022/05/21 04:41:11;;;;;;;15.70;11.07;;;13.00;99.90;;;;;;5014782;28;20195;-81
2022/05/21 04:43:52;;;;;;;15.60;11.00;;;13.00;99.90;;;;;;5001586;28;21769;-81
2022/05/21 04:46:29;;;;;;;16.07;11.17;;;13.00;99.90;;;;;;4991923;28;20211;-81
2022/05/21 04:49:07;;;;;;;15.57;10.80;;;13.10;99.90;;;;;;5026308;28;20204;-81
2022/05/21 04:51:39;;;;;;;17.47;10.70;;;13.00;99.90;;;;;;4993990;28;20200;-81
2022/05/21 04:54:10;;;;;;;13.93;11.63;;;13.00;99.90;;;;;;5008897;28;20284;-81
2022/05/21 04:56:54;;;;;;;15.80;11.27;;;13.00;99.90;;;;;;4986422;28;20204;-81
2022/05/21 04:59:24;;;;;;;15.43;11.90;;;13.10;99.90;;;;;;5027008;28;20204;-81
2022/05/21 05:01:59;;;;;;;15.17;11.23;;;13.10;99.90;;;;;;4991835;28;20196;-82
2022/05/21 05:04:41;;;;;;;15.87;10.20;;;13.10;99.90;;;;;;4989547;28;20226;-81
2022/05/21 05:07:19;;;;;;;17.37;10.60;;;13.20;99.90;;;;;;4996174;28;20200;-81
2022/05/21 05:10:40;;;;;;;14.93;11.30;;;13.20;99.90;;;;;;4985469;28;20203;-81
2022/05/21 05:13:17;;;;;;;15.23;11.03;;;13.10;99.90;;;;;;4990764;28;20544;-82
2022/05/21 05:16:00;;;;;;;14.50;11.50;;;13.20;99.90;;;;;;4992624;28;20308;-82
2022/05/21 05:18:47;;;;;;;13.53;11.03;;;13.30;99.90;;;;;;4997165;28;20207;-81
2022/05/21 05:21:23;;;;;;;19.90;11.97;;;13.30;99.90;;;;;;5005607;28;20208;-81
2022/05/21 05:24:02;;;;;;;14.67;10.33;;;13.30;99.90;;;;;;5002929;28;20211;-82
2022/05/21 05:26:36;;;;;;;15.47;10.80;;;13.40;99.90;;;;;;5005879;28;20196;-81
2022/05/21 05:29:44;;;;;;;14.17;10.40;;;13.40;99.90;;;;;;5010146;28;20215;-81
2022/05/21 05:32:47;;;;;;;13.48;10.00;;;13.40;99.90;;;;;;5004100;28;20262;-81
2022/05/21 05:35:27;;;;;;;17.42;10.98;;;13.40;99.90;;;;;;4999331;28;20230;-82
2022/05/21 05:38:07;;;;;;;13.75;9.32;;;13.40;99.90;;;;;;4997710;28;20204;-81
2022/05/21 05:40:47;;;;;;;12.13;8.83;;;13.50;99.90;;;;;;5014582;28;20215;-81
2022/05/21 05:43:39;;;;;;;11.90;9.47;;;13.50;99.90;;;;;;4998194;28;20195;-80
2022/05/21 05:46:41;;;;;;;12.47;8.80;;;13.40;99.90;;;;;;4999683;28;20200;-81
2022/05/21 05:49:09;;;;;;;17.13;10.07;;;13.40;99.90;;;;;;5002984;28;20200;-81
2022/05/21 05:51:53;;;;;;;15.65;9.38;;;13.40;99.90;;;;;;5003931;28;20211;-81
2022/05/21 05:54:41;;;;;;;15.32;10.27;;;13.50;99.90;;;;;;5007300;28;20224;-82
2022/05/21 05:57:14;;;;;;;13.50;9.27;;;13.40;99.90;;;;;;5013834;28;20201;-82
2022/05/21 05:59:50;;;;;;;12.73;9.03;;;13.40;99.90;;;;;;4987806;28;20204;-82
2022/05/21 06:05:17;;;;;;;13.98;10.25;;;13.40;99.90;;;;;;5019869;28;20205;-82
2022/05/21 06:07:58;;;;;;;12.43;9.03;;;13.50;99.90;;;;;;5020641;28;20211;-82
2022/05/21 06:10:51;;;;;;;15.20;9.02;;;13.50;99.90;;;;;;5006822;28;20211;-82
2022/05/21 06:13:29;;;;;;;13.88;10.02;;;13.40;99.90;;;;;;4997553;28;20200;-82
2022/05/21 06:16:09;;;;;;;15.33;10.10;;;13.40;99.90;;;;;;5009301;28;20590;-82
2022/05/21 06:18:41;;;;;;;14.33;10.47;;;13.40;99.90;;;;;;4998099;28;20200;-82
2022/05/21 06:21:15;;;;;;;12.83;9.73;;;13.30;99.90;;;;;;4994546;28;20192;-82
2022/05/21 06:23:49;;;;;;;15.57;9.60;;;13.40;99.90;;;;;;5026045;28;20204;-82
2022/05/21 06:26:32;;;;;;;18.03;11.00;;;13.40;99.90;;;;;;4995258;28;20219;-82
2022/05/21 06:28:59;;;;;;;15.97;10.77;;;13.30;99.90;;;;;;5009270;28;20211;-82
2022/05/21 06:31:34;;;;;;;12.97;9.47;;;13.30;99.90;;;;;;4991953;28;20203;-82
2022/05/21 06:34:05;;;;;;;14.33;10.30;;;13.30;99.90;;;;;;5011658;28;20220;-82
2022/05/21 06:36:44;;;;;;;16.17;10.53;;;13.40;99.90;;;;;;5018121;28;20192;-82
2022/05/21 06:39:20;;;;;;;13.30;9.48;;;13.40;99.90;;;;;;4994044;28;20192;-82
2022/05/21 06:41:57;;;;;;;14.90;9.67;;;13.30;99.90;;;;;;4994883;28;20230;-82
2022/05/21 06:44:33;;;;;;;13.40;9.05;;;13.40;99.90;;;;;;5009189;28;20230;-82
2022/05/21 06:47:06;;;;;;;17.67;10.52;;;13.50;99.90;;;;;;4995401;28;20206;-82
2022/05/21 06:49:38;;;;;;;13.43;9.60;;;13.40;99.90;;;;;;4998678;28;20228;-82
2022/05/21 06:52:14;;;;;;;16.02;9.18;;;13.50;99.90;;;;;;4995993;28;20196;-83
2022/05/21 06:54:48;;;;;;;13.50;9.50;;;13.50;99.90;;;;;;5026585;28;20224;-82
2022/05/21 06:57:21;;;;;;;16.10;9.27;;;13.40;99.90;;;;;;5013500;28;20204;-82
2022/05/21 06:59:49;;;;;;;13.87;8.60;;;13.50;99.90;;;;;;4990107;28;20196;-82
2022/05/21 07:02:27;;;;;;;12.90;9.00;;;13.40;99.90;;;;;;4993358;28;20207;-82
2022/05/21 07:07:51;;;;;;;15.30;9.35;;;13.40;99.90;;;;;;4995018;28;20200;-84
2022/05/21 07:10:29;;;;;;;14.67;9.70;;;13.40;99.90;;;;;;5026825;28;20200;-83
2022/05/21 07:13:19;;;;;;;15.37;9.63;;;13.50;99.90;;;;;;5028808;28;20208;-83
2022/05/21 07:16:06;;;;;;;13.00;9.13;;;13.90;99.90;;;;;;5012891;28;20235;-83
2022/05/21 07:19:09;;;;;;;16.77;9.63;;;13.70;99.90;;;;;;4997766;28;20220;-81
2022/05/21 07:22:16;;;;;;;15.68;9.38;;;14.10;99.90;;;;;;4988818;28;20188;-78
2022/05/21 07:24:52;;;;;;;14.93;8.88;;;14.20;99.90;;;;;;5004475;28;20228;-78
2022/05/21 07:27:31;;;;;;;12.43;9.15;;;13.80;99.90;;;;;;4984124;28;20197;-79
2022/05/21 07:30:05;;;;;;;14.18;9.60;;;13.60;99.90;;;;;;5021672;28;20690;-81
2022/05/21 07:32:50;;;;;;;17.42;9.40;;;13.50;99.90;;;;;;5022492;28;20207;-81
2022/05/21 07:35:29;;;;;;;11.50;9.27;;;13.60;99.90;;;;;;4997054;28;20224;-81
2022/05/21 07:38:01;;;;;;;12.65;9.40;;;13.70;99.90;;;;;;5028239;28;20211;-78
2022/05/21 07:40:31;;;;;;;15.30;11.45;;;13.80;99.90;;;;;;5000862;28;20196;-78
2022/05/21 07:43:13;;;;;;;16.45;11.57;;;13.90;99.90;;;;;;5017313;28;20192;-78
2022/05/21 07:46:08;;;;;;;17.17;12.80;;;13.90;99.90;;;;;;4999740;28;20231;-78
2022/05/21 07:48:45;;;;;;;15.90;11.85;;;13.90;99.90;;;;;;5031621;28;20448;-79
2022/05/21 07:51:13;;;;;;;15.82;11.55;;;14.00;99.90;;;;;;4987334;28;20199;-78
2022/05/21 07:53:54;;;;;;;13.13;10.50;;;14.00;99.90;;;;;;4993367;28;20208;-78
2022/05/21 07:56:23;;;;;;;20.25;10.45;;;13.90;99.90;;;;;;4996840;28;20220;-78
2022/05/21 07:58:57;;;;;;;17.52;11.45;;;13.80;99.90;;;;;;5029466;28;20215;-78
2022/05/21 08:01:26;;;;;;;14.23;10.27;;;13.80;99.90;;;;;;4998999;28;20204;-78
2022/05/21 08:04:03;;;;;;;14.90;9.73;;;13.90;99.90;;;;;;5034524;28;20230;-81
2022/05/21 08:06:44;;;;;;;16.55;10.20;;;13.80;99.90;;;;;;5032273;28;20197;-79
2022/05/21 08:09:17;;;;;;;15.52;9.57;;;13.80;99.90;;;;;;4991326;28;20210;-79
2022/05/21 08:11:46;;;;;;;15.18;10.32;;;13.80;99.90;;;;;;5015121;28;20207;-79
2022/05/21 08:14:23;;;;;;;16.33;9.85;;;13.90;99.90;;;;;;5031656;28;20693;-79
2022/05/21 08:16:53;;;;;;;16.15;9.15;;;13.90;99.90;;;;;;5033166;28;20200;-79
2022/05/21 08:19:23;;;;;;;11.98;8.90;;;13.90;99.90;;;;;;4996464;28;20204;-79
2022/05/21 08:26:56;;;;;;;18.83;10.40;;;13.90;99.90;;;;;;5004854;28;20200;-79
2022/05/21 08:27:54;;;;;;;15.77;9.90;;;14.00;99.90;;;;;;4996018;28;20211;-78
2022/05/21 08:30:30;;;;;;;15.35;10.55;;;13.90;99.90;;;;;;4994798;28;20223;-79
2022/05/21 08:33:28;;;;;;;15.38;11.13;;;14.00;99.90;;;;;;5032666;28;20201;-79
2022/05/21 08:36:11;;;;;;;11.02;9.75;;;14.00;99.90;;;;;;5033727;28;20231;-79
2022/05/21 08:38:50;;;;;;;17.92;9.80;;;13.90;99.90;;;;;;5032637;28;20209;-79
2022/05/21 08:41:26;;;;;;;14.07;10.13;;;14.20;99.90;;;;;;5017615;28;20200;-79
2022/05/21 08:44:08;;;;;;;14.07;10.60;;;14.20;99.90;;;;;;4991870;28;20220;-79
2022/05/21 08:46:51;;;;;;;17.35;10.63;;;14.30;99.90;;;;;;5004573;28;20195;-79
2022/05/21 08:49:29;;;;;;;16.88;10.40;;;14.20;99.90;;;;;;5000338;28;20196;-79
2022/05/21 08:52:08;;;;;;;11.95;10.30;;;14.20;99.90;;;;;;5018008;28;20215;-79
2022/05/21 08:54:48;;;;;;;15.70;10.30;;;14.20;99.90;;;;;;4997785;28;20216;-78
2022/05/21 08:57:22;;;;;;;14.32;10.90;;;14.10;99.90;;;;;;5002191;28;20207;-79
2022/05/21 09:00:07;;;;;;;12.07;9.80;;;14.20;99.90;;;;;;4999844;28;20196;-79
2022/05/21 09:02:58;;;;;;;19.02;10.07;;;14.30;99.90;;;;;;5001816;28;20678;-79
2022/05/21 09:05:32;;;;;;;15.15;9.90;;;14.20;99.90;;;;;;4994629;28;20231;-79
2022/05/21 09:08:16;;;;;;;14.60;9.75;;;14.20;99.90;;;;;;4998207;28;20196;-79
2022/05/21 09:10:52;;;;;;;13.63;8.50;;;14.40;99.90;;;;;;5013385;28;20205;-79
2022/05/21 09:13:44;;;;;;;15.27;9.18;;;14.50;99.90;;;;;;4988324;28;20201;-79
2022/05/21 09:19:15;;;;;;;15.13;10.43;;;14.30;99.90;;;;;;4994303;28;20188;-79
2022/05/21 09:21:48;;;;;;;14.07;10.70;;;14.40;99.90;;;;;;5031193;28;20333;-79
2022/05/21 09:24:38;;;;;;;19.08;11.05;;;14.40;99.90;;;;;;4989124;28;20228;-79
2022/05/21 09:27:49;;;;;;;18.13;11.15;;;14.40;99.90;;;;;;5018048;28;20255;-81
2022/05/21 09:30:40;;;;;;;16.67;10.63;;;14.80;99.90;;;;;;5007481;28;20201;-79
2022/05/21 09:33:40;;;;;;;17.73;9.90;;;14.80;99.90;;;;;;5024849;28;20211;-82
2022/05/21 09:36:18;;;;;;;13.77;9.43;;;14.70;99.90;;;;;;4989192;28;20219;-81
2022/05/21 09:39:13;;;;;;;18.42;9.98;;;15.00;99.90;;;;;;5028669;28;20204;-79
2022/05/21 09:41:55;;;;;;;17.75;11.07;;;15.20;99.90;;;;;;5029474;28;20211;-79
2022/05/21 09:50:28;;;;;;;16.63;10.73;;;15.60;99.90;;;;;;5016300;28;20200;-79
2022/05/21 09:53:27;;;;;;;18.70;11.32;;;15.60;99.90;;;;;;4997664;28;20204;-79
2022/05/21 09:56:12;;;;;;;15.18;10.43;;;15.50;99.90;;;;;;4995454;28;20217;-81
2022/05/21 09:59:07;;;;;;;11.48;10.20;;;15.40;99.90;;;;;;4993415;28;20196;-79
2022/05/21 10:01:44;;;;;;;17.35;10.77;;;15.40;99.90;;;;;;4977214;28;20212;-80
2022/05/21 10:04:27;;;;;;;15.05;10.82;;;15.60;99.90;;;;;;4990857;28;20693;-79
2022/05/21 10:10:58;;;;;;;14.35;10.10;;;15.80;99.90;;;;;;5027335;28;20207;-79
2022/05/21 10:13:24;;;;;;;13.43;8.68;;;15.80;99.90;;;;;;5003332;28;20193;-79
2022/05/21 10:16:08;;;;;;;11.82;8.85;;;15.90;99.90;;;;;;5026990;28;20227;-79
2022/05/21 10:18:42;;;;;;;14.40;8.60;;;16.20;99.90;;;;;;5016502;28;20203;-79
2022/05/21 10:22:03;;;;;;;17.25;8.45;;;16.50;99.90;;;;;;4990127;28;20200;-78
2022/05/21 10:24:46;;;;;;;13.35;8.88;;;16.30;99.90;;;;;;5030393;28;20227;-79
2022/05/21 10:27:32;;;;;;;13.98;10.32;;;16.30;99.90;;;;;;4994763;28;20193;-78
2022/05/21 10:30:15;;;;;;;13.23;9.00;;;16.20;99.90;;;;;;5004502;28;20196;-78
2022/05/21 10:33:24;;;;;;;13.88;8.75;;;16.50;99.90;;;;;;4999405;28;20212;-79
2022/05/21 10:36:30;;;;;;;15.50;9.13;;;16.50;99.90;;;;;;5028311;28;20216;-79
2022/05/21 10:39:31;;;;;;;12.73;8.00;;;16.30;99.90;;;;;;5015123;28;20228;-79
2022/05/21 10:42:21;;;;;;;14.82;7.82;;;16.20;99.90;;;;;;4994792;28;20213;-79
2022/05/21 10:45:20;;;;;;;10.70;7.63;;;16.30;99.90;;;;;;5008319;28;20225;-79
2022/05/21 10:48:29;;;;;;;13.57;7.75;;;16.50;99.90;;;;;;5026141;28;20208;-79
2022/05/21 10:51:10;;;;;;;9.60;7.00;;;16.40;99.90;;;;;;4955663;28;20219;-79
2022/05/21 10:54:26;;;;;;;11.88;7.00;;;16.10;99.90;;;;;;4994742;28;20193;-79
2022/05/21 10:57:20;;;;;;;11.35;7.50;;;15.90;99.90;;;;;;5000609;28;20226;-79
2022/05/21 11:00:02;;;;;;;10.93;7.63;;;16.00;99.90;;;;;;4993127;28;20211;-79
2022/05/21 11:03:09;;;;;;;12.15;8.05;;;16.10;99.90;;;;;;5018776;28;20215;-79
2022/05/21 11:06:07;;;;;;;9.30;7.03;;;16.20;99.90;;;;;;5029109;28;20223;-79
2022/05/21 11:09:11;;;;;;;10.85;7.47;;;16.40;99.90;;;;;;5023998;28;20215;-79
2022/05/21 11:12:04;;;;;;;9.73;6.50;;;16.20;99.90;;;;;;5016466;28;20204;-79
2022/05/21 11:14:54;;;;;;;10.70;7.47;;;16.20;99.90;;;;;;4990046;28;20221;-79
2022/05/21 11:17:36;;;;;;;13.02;8.10;;;16.20;99.90;;;;;;5028808;28;20209;-79
2022/05/21 11:20:27;;;;;;;11.25;7.65;;;16.10;99.90;;;;;;5016778;28;20553;-79
2022/05/21 11:23:03;;;;;;;10.27;7.53;;;16.10;99.90;;;;;;4999951;28;20207;-79
2022/05/21 11:25:43;;;;;;;15.07;8.10;;;16.20;99.90;;;;;;5020462;28;20229;-80
2022/05/21 11:28:36;;;;;;;10.18;7.47;;;16.30;99.90;;;;;;5026198;28;20208;-79
2022/05/21 11:31:09;;;;;;;9.30;7.28;;;16.30;99.90;;;;;;5006143;28;20201;-79
2022/05/21 11:39:21;;;;;;;10.32;7.13;;;16.80;99.90;;;;;;5004974;28;20199;-80
2022/05/21 11:42:17;;;;;;;10.45;7.28;;;16.90;99.90;;;;;;5026238;28;20200;-80
2022/05/21 11:44:58;;;;;;;13.63;7.85;;;16.90;99.90;;;;;;5018090;28;20583;-79
2022/05/21 11:47:46;;;;;;;8.73;7.10;;;16.80;99.90;;;;;;5026193;28;20192;-79
2022/05/21 11:50:24;;;;;;;10.05;6.50;;;16.80;99.90;;;;;;5027795;28;20218;-79
2022/05/21 11:53:04;;;;;;;9.98;7.13;;;17.00;99.90;;;;;;5029643;28;20219;-79
2022/05/21 11:55:48;;;;;;;9.05;7.78;;;17.00;99.90;;;;;;5015831;28;20223;-79
2022/05/21 11:58:15;;;;;;;10.82;7.90;;;17.10;99.90;;;;;;5014073;28;20239;-79
2022/05/21 12:00:49;;;;;;;12.40;8.10;;;17.00;99.90;;;;;;5031915;28;20304;-79
2022/05/21 12:03:21;;;;;;;10.35;7.50;;;17.10;99.90;;;;;;5012475;28;20215;-79
2022/05/21 12:06:23;;;;;;;8.57;6.88;;;17.40;99.90;;;;;;5002924;28;20224;-79
2022/05/21 12:09:09;;;;;;;11.20;7.13;;;17.50;99.90;;;;;;5011691;28;20215;-79
2022/05/21 12:11:46;;;;;;;10.30;7.50;;;17.40;99.90;;;;;;5027012;28;20204;-79
2022/05/21 12:14:50;;;;;;;10.43;6.97;;;17.50;99.90;;;;;;4994414;28;20235;-79
2022/05/21 12:17:43;;;;;;;11.80;8.30;;;17.60;99.90;;;;;;5001577;28;20212;-79
2022/05/21 12:20:12;;;;;;;9.73;7.22;;;17.40;99.90;;;;;;5016652;28;20200;-79
2022/05/21 12:22:52;;;;;;;8.32;6.28;;;17.50;99.90;;;;;;5006637;28;20204;-79
2022/05/21 12:26:00;;;;;;;10.80;6.80;;;17.20;99.90;;;;;;5008543;28;20224;-79
2022/05/21 12:28:51;;;;;;;10.30;6.60;;;17.20;99.90;;;;;;4990423;28;20208;-78
2022/05/21 12:31:24;;;;;;;11.93;6.82;;;17.20;99.90;;;;;;5015754;28;20219;-79
2022/05/21 12:34:04;;;;;;;14.88;7.75;;;17.40;99.90;;;;;;5006191;28;20212;-79
2022/05/21 12:36:51;;;;;;;13.85;7.65;;;17.50;99.90;;;;;;5025123;28;20208;-80
2022/05/21 12:39:26;;;;;;;11.80;7.75;;;17.40;99.90;;;;;;4994515;28;20208;-80
2022/05/21 12:41:55;;;;;;;12.20;7.22;;;17.30;99.90;;;;;;4994850;28;20203;-79
2022/05/21 12:44:39;;;;;;;9.55;6.93;;;17.40;99.90;;;;;;5001495;28;20220;-79
2022/05/21 12:47:07;;;;;;;12.55;7.47;;;17.80;99.90;;;;;;5025693;28;20197;-79
2022/05/21 12:49:37;;;;;;;14.02;7.30;;;18.10;99.90;;;;;;4999482;28;20204;-80
2022/05/21 12:52:04;;;;;;;12.75;7.18;;;18.40;98.80;;;;;;4992024;28;20208;-81
2022/05/21 12:54:33;;;;;;;11.32;6.50;;;18.20;98.70;;;;;;5024734;28;20224;-80
2022/05/21 12:57:12;;;;;;;9.45;6.70;;;18.10;98.90;;;;;;4979713;28;20215;-80
2022/05/21 12:59:41;;;;;;;12.30;7.18;;;18.00;99.10;;;;;;5015260;28;20223;-80
2022/05/21 13:02:14;;;;;;;9.45;6.88;;;17.90;98.80;;;;;;4989087;28;20196;-79
2022/05/21 13:04:43;;;;;;;10.82;7.80;;;17.90;99.10;;;;;;5015601;28;20224;-80
2022/05/21 13:07:16;;;;;;;9.45;7.00;;;17.90;98.80;;;;;;4992763;28;20187;-80
2022/05/21 13:09:52;;;;;;;10.68;6.53;;;17.80;98.80;;;;;;4987478;28;20550;-79
2022/05/21 13:12:21;;;;;;;10.15;7.07;;;17.80;99.40;;;;;;5012481;28;20214;-80
2022/05/21 13:14:51;;;;;;;10.02;6.82;;;17.70;99.30;;;;;;4999976;28;20700;-80
2022/05/21 13:17:26;;;;;;;9.40;7.50;;;17.60;99.90;;;;;;5027657;28;20223;-80
2022/05/21 13:20:10;;;;;;;9.65;6.47;;;17.60;99.90;;;;;;5024822;28;20197;-81
2022/05/21 13:23:05;;;;;;;10.65;7.53;;;17.60;99.90;;;;;;4994332;28;20203;-81
2022/05/21 13:25:33;;;;;;;9.77;7.00;;;17.70;99.90;;;;;;5001031;28;20227;-80
2022/05/21 13:28:00;;;;;;;9.95;7.00;;;17.70;99.90;;;;;;4993479;28;20312;-82
2022/05/21 13:30:35;;;;;;;8.27;6.70;;;18.10;99.90;;;;;;4992442;28;20208;-80
2022/05/21 13:33:13;;;;;;;10.50;7.80;;;18.90;98.50;;;;;;5018082;28;20573;-80
2022/05/21 13:35:44;;;;;;;11.13;7.15;;;19.10;96.10;;;;;;5015483;28;20226;-80
2022/05/21 13:38:16;;;;;;;9.80;6.68;;;19.10;95.50;;;;;;4996477;28;20227;-80
2022/05/21 13:40:48;;;;;;;10.65;7.55;;;19.00;95.80;;;;;;5007098;28;20204;-80
2022/05/21 13:43:22;;;;;;;10.95;7.20;;;18.50;96.70;;;;;;5001867;28;20200;-80
2022/05/21 13:45:56;;;;;;;10.18;6.40;;;18.60;96.40;;;;;;5017562;28;20236;-80
2022/05/21 13:48:29;;;;;;;8.18;6.35;;;19.00;96.90;;;;;;5017333;28;20199;-80
2022/05/21 13:50:57;;;;;;;9.27;6.40;;;18.80;96.40;;;;;;4995515;28;20232;-80
2022/05/21 13:53:27;;;;;;;11.50;7.28;;;18.70;97.10;;;;;;4986826;28;20203;-80
2022/05/21 13:55:56;;;;;;;12.32;6.38;;;18.60;97.50;;;;;;5003945;28;20315;-80
2022/05/21 13:58:29;;;;;;;10.88;6.72;;;18.60;97.50;;;;;;5018599;28;20232;-80
2022/05/21 14:01:00;;;;;;;7.68;6.45;;;18.60;97.10;;;;;;4991220;28;20204;-80
2022/05/21 14:03:31;;;;;;;8.95;6.47;;;18.30;96.90;;;;;;5016925;28;20212;-80
2022/05/21 14:06:01;;;;;;;8.95;6.55;;;18.30;98.00;;;;;;5009682;28;20220;-80
2022/05/21 14:08:34;;;;;;;9.10;6.70;;;18.30;97.90;;;;;;4990762;28;20201;-80
2022/05/21 14:11:05;;;;;;;9.10;6.82;;;18.30;97.90;;;;;;4990426;28;20608;-80
2022/05/21 14:13:38;;;;;;;10.15;7.07;;;18.10;98.10;;;;;;4993670;28;20197;-79
2022/05/21 14:16:23;;;;;;;11.88;7.40;;;18.00;97.50;;;;;;5002178;28;20208;-80
2022/05/21 14:19:02;;;;;;;11.48;6.63;;;18.10;97.80;;;;;;4992374;28;20230;-80
2022/05/21 14:21:29;;;;;;;12.23;6.70;;;18.30;97.50;;;;;;5004110;28;20224;-79
2022/05/21 14:24:15;;;;;;;9.98;7.50;;;18.80;97.40;;;;;;5012405;28;20216;-79